Time;durP1;ratioP1;P1;durP2;ratioP2;P2;SDS_P1;SDS_P2;PMS_P1;PMS_P2;Temp;Humidity;BMP_temperature;BMP_pressure;BME280_temperature;BME280_humidity;BME280_pressure;Samples;Min_cycle;Max_cycle;Signal;HPM_P1;HPM_P2
2023/03/07 00:04:10;;;;;;;;;;;;;;;;;;5058363;28;6932;-60
2023/03/07 00:06:42;;;;;;;;;;;;;;;;;;5058170;28;8154;-60
2023/03/07 00:09:08;;;;;;;;;;;;;;;;;;5058449;28;7363;-60
2023/03/07 00:11:34;;;;;;;;;;;;;;;;;;5058377;28;6925;-60
2023/03/07 00:13:59;;;;;;;;;;;;;;;;;;5042726;28;7118;-60
2023/03/07 00:16:25;;;;;;;;;;;;;;;;;;5038878;28;7399;-60
2023/03/07 00:18:51;;;;;;;;;;;;;;;;;;5038850;28;7104;-60
2023/03/07 00:21:20;;;;;;;;;;;;;;;;;;5038152;28;7922;-60
2023/03/07 00:23:46;;;;;;;;;;;;;;;;;;5038237;28;7222;-60
2023/03/07 00:26:14;;;;;;;;;;;;;;;;;;5038143;28;7153;-60
2023/03/07 00:31:54;;;;;;;;;;;;;;;;;;5037855;28;6689;-60
2023/03/07 00:37:18;;;;;;;;;;;;;;;;;;5038058;28;6769;-60
2023/03/07 00:39:44;;;;;;;;;;;;;;;;;;5037950;28;7387;-60
2023/03/07 00:45:12;;;;;;;;;;;;;;;;;;5037406;28;6931;-60
2023/03/07 00:47:38;;;;;;;;;;;;;;;;;;5037845;28;7107;-60
2023/03/07 00:50:04;;;;;;;;;;;;;;;;;;5037577;28;7100;-60
2023/03/07 00:52:30;;;;;;;;;;;;;;;;;;5037684;28;6919;-60
2023/03/07 00:54:56;;;;;;;;;;;;;;;;;;5037656;28;7191;-60
2023/03/07 01:00:16;;;;;;;;;;;;;;;;;;5037617;28;6880;-60
2023/03/07 01:02:42;;;;;;;;;;;;;;;;;;5037516;28;6993;-60
2023/03/07 01:05:07;;;;;;;;;;;;;;;;;;5037489;28;7021;-64
2023/03/07 01:07:33;;;;;;;;;;;;;;;;;;5037542;28;7080;-64
2023/03/07 01:13:02;;;;;;;;;;;;;;;;;;5037040;28;6809;-66
2023/03/07 01:18:34;;;;;;;;;;;;;;;;;;5036974;28;6670;-65
2023/03/07 01:21:00;;;;;;;;;;;;;;;;;;5037262;28;7070;-65
2023/03/07 01:23:25;;;;;;;;;;;;;;;;;;5037050;28;7578;-65
2023/03/07 01:25:51;;;;;;;;;;;;;;;;;;5037115;28;7134;-65
2023/03/07 01:28:17;;;;;;;;;;;;;;;;;;5036929;28;7118;-65
2023/03/07 01:30:42;;;;;;;;;;;;;;;;;;5036992;28;7197;-65
2023/03/07 01:33:08;;;;;;;;;;;;;;;;;;5036800;28;7061;-65
2023/03/07 01:35:37;;;;;;;;;;;;;;;;;;5036909;28;7365;-65
2023/03/07 01:38:03;;;;;;;;;;;;;;;;;;5036940;28;6940;-65
2023/03/07 01:43:32;;;;;;;;;;;;;;;;;;5037104;28;6978;-65
2023/03/07 01:46:35;;;;;;;;;;;;;;;;;;5036466;28;8144;-65
2023/03/07 01:49:13;;;;;;;;;;;;;;;;;;5033459;28;7173;-65
2023/03/07 01:51:42;;;;;;;;;;;;;;;;;;5036860;28;7119;-65
2023/03/07 02:00:10;;;;;;;;;;;;;;;;;;5056307;28;7019;-65
2023/03/07 02:02:39;;;;;;;;;;;;;;;;;;5056510;28;8331;-65
2023/03/07 02:05:29;;;;;;;;;;;;;;;;;;5056242;28;7201;-65
2023/03/07 02:07:58;;;;;;;;;;;;;;;;;;5056140;28;7120;-65
2023/03/07 02:10:24;;;;;;;;;;;;;;;;;;5055917;28;8008;-65
2023/03/07 02:12:52;;;;;;;;;;;;;;;;;;5055785;28;7002;-65
2023/03/07 02:15:18;;;;;;;;;;;;;;;;;;5055762;28;7227;-65
2023/03/07 02:21:11;;;;;;;;;;;;;;;;;;5055960;28;6929;-65
2023/03/07 02:23:42;;;;;;;;;;;;;;;;;;5055769;28;7140;-65
2023/03/07 02:26:31;;;;;;;;;;;;;;;;;;5055883;28;7069;-65
2023/03/07 02:32:13;;;;;;;;;;;;;;;;;;5055601;28;6678;-65
2023/03/07 02:34:38;;;;;;;;;;;;;;;;;;5055620;28;7386;-65
2023/03/07 02:37:10;;;;;;;;;;;;;;;;;;5055355;28;7148;-65
2023/03/07 02:39:38;;;;;;;;;;;;;;;;;;5055689;28;7124;-65
2023/03/07 02:42:24;;;;;;;;;;;;;;;;;;5037516;28;8337;-65
2023/03/07 02:45:00;;;;;;;;;;;;;;;;;;5055182;28;7181;-65
2023/03/07 02:47:26;;;;;;;;;;;;;;;;;;5055503;28;7296;-65
2023/03/07 02:49:52;;;;;;;;;;;;;;;;;;5055429;28;7289;-65
2023/03/07 02:52:20;;;;;;;;;;;;;;;;;;5055193;28;7209;-65
2023/03/07 02:54:46;;;;;;;;;;;;;;;;;;5055188;28;7447;-65
2023/03/07 02:57:13;;;;;;;;;;;;;;;;;;5054938;28;7713;-65
2023/03/07 03:02:45;;;;;;;;;;;;;;;;;;5054917;28;6677;-65
2023/03/07 03:14:50;;;;;;;;;;;;;;;;;;5055033;28;7061;-65
2023/03/07 03:17:16;;;;;;;;;;;;;;;;;;5054863;28;6827;-65
2023/03/07 03:19:42;;;;;;;;;;;;;;;;;;5053716;28;7109;-65
2023/03/07 03:22:07;;;;;;;;;;;;;;;;;;5054495;28;7923;-65
2023/03/07 03:27:36;;;;;;;;;;;;;;;;;;5054649;28;6936;-65
2023/03/07 03:30:04;;;;;;;;;;;;;;;;;;5053892;28;6955;-65
2023/03/07 03:38:36;;;;;;;;;;;;;;;;;;5042233;28;6669;-65
2023/03/07 03:43:56;;;;;;;;;;;;;;;;;;5034464;28;6761;-65
2023/03/07 03:46:22;;;;;;;;;;;;;;;;;;5044592;28;7378;-65
2023/03/07 03:48:52;;;;;;;;;;;;;;;;;;5054576;28;6934;-65
2023/03/07 03:51:34;;;;;;;;;;;;;;;;;;5054593;28;7511;-65
2023/03/07 03:53:59;;;;;;;;;;;;;;;;;;5054673;28;7336;-65
2023/03/07 03:56:26;;;;;;;;;;;;;;;;;;5054417;28;7002;-65
2023/03/07 03:58:54;;;;;;;;;;;;;;;;;;5054461;28;7097;-65
2023/03/07 04:01:21;;;;;;;;;;;;;;;;;;5054471;28;7180;-65
2023/03/07 04:03:49;;;;;;;;;;;;;;;;;;5054390;28;7360;-65
2023/03/07 04:09:46;;;;;;;;;;;;;;;;;;5054295;28;6955;-65
2023/03/07 04:12:12;;;;;;;;;;;;;;;;;;5051122;28;7252;-65
2023/03/07 04:14:43;;;;;;;;;;;;;;;;;;5044421;28;6928;-65
2023/03/07 04:17:09;;;;;;;;;;;;;;;;;;5034319;28;6980;-65
2023/03/07 04:22:49;;;;;;;;;;;;;;;;;;5034041;28;6999;-65
2023/03/07 04:25:33;;;;;;;;;;;;;;;;;;5044852;28;8159;-65
2023/03/07 04:27:59;;;;;;;;;;;;;;;;;;5034275;28;7073;-65
2023/03/07 04:30:25;;;;;;;;;;;;;;;;;;5034440;28;7014;-65
2023/03/07 04:35:53;;;;;;;;;;;;;;;;;;5034035;28;6975;-65
2023/03/07 04:38:18;;;;;;;;;;;;;;;;;;5038221;28;7247;-65
2023/03/07 04:40:44;;;;;;;;;;;;;;;;;;5047851;28;7155;-65
2023/03/07 04:46:13;;;;;;;;;;;;;;;;;;5037761;28;6936;-64
2023/03/07 04:48:39;;;;;;;;;;;;;;;;;;5037778;28;6931;-64
2023/03/07 04:54:13;;;;;;;;;;;;;;;;;;5037455;28;6730;-64
2023/03/07 04:56:58;;;;;;;;;;;;;;;;;;5037639;28;7145;-64
2023/03/07 04:59:24;;;;;;;;;;;;;;;;;;5046268;28;7353;-64
2023/03/07 05:01:49;;;;;;;;;;;;;;;;;;5056758;28;7030;-64
2023/03/07 05:04:28;;;;;;;;;;;;;;;;;;5051751;28;8227;-64
2023/03/07 05:06:53;;;;;;;;;;;;;;;;;;5057378;28;7270;-64
2023/03/07 05:09:19;;;;;;;;;;;;;;;;;;5057035;28;7621;-64
2023/03/07 05:11:59;;;;;;;;;;;;;;;;;;5057249;28;7168;-64
2023/03/07 05:14:25;;;;;;;;;;;;;;;;;;5057233;28;6941;-64
2023/03/07 05:20:22;;;;;;;;;;;;;;;;;;5056985;28;6678;-64
2023/03/07 05:22:48;;;;;;;;;;;;;;;;;;5056796;28;7899;-64
2023/03/07 05:25:14;;;;;;;;;;;;;;;;;;5056677;28;6921;-64
2023/03/07 05:27:59;;;;;;;;;;;;;;;;;;5057323;28;7224;-64
2023/03/07 05:30:24;;;;;;;;;;;;;;;;;;5056925;28;7048;-64
2023/03/07 05:33:02;;;;;;;;;;;;;;;;;;5056685;28;7389;-64
2023/03/07 05:35:27;;;;;;;;;;;;;;;;;;5056835;28;7357;-64
2023/03/07 05:37:53;;;;;;;;;;;;;;;;;;5054773;28;7767;-64
2023/03/07 05:46:24;;;;;;;;;;;;;;;;;;5036555;28;6682;-64
2023/03/07 05:49:12;;;;;;;;;;;;;;;;;;5039590;28;6925;-66
2023/03/07 05:51:37;;;;;;;;;;;;;;;;;;5050849;28;7216;-60
2023/03/07 05:54:03;;;;;;;;;;;;;;;;;;5029779;28;7146;-60
2023/03/07 05:59:43;;;;;;;;;;;;;;;;;;5055431;28;6956;-60
2023/03/07 06:02:09;;;;;;;;;;;;;;;;;;5041211;28;7399;-60
2023/03/07 06:04:34;;;;;;;;;;;;;;;;;;5039734;28;7186;-60
2023/03/07 06:07:31;;;;;;;;;;;;;;;;;;5048162;28;7008;-59
2023/03/07 06:09:56;;;;;;;;;;;;;;;;;;5036102;28;7170;-60
2023/03/07 06:12:21;;;;;;;;;;;;;;;;;;5044442;28;7372;-60
2023/03/07 06:15:19;;;;;;;;;;;;;;;;;;5043870;28;7206;-59
2023/03/07 06:17:44;;;;;;;;;;;;;;;;;;5016454;28;7118;-60
2023/03/07 06:23:13;;;;;;;;;;;;;;;;;;5035081;28;7041;-65
2023/03/07 06:25:40;;;;;;;;;;;;;;;;;;5036045;28;7161;-59
2023/03/07 06:28:05;;;;;;;;;;;;;;;;;;5050191;28;6981;-64
2023/03/07 06:30:31;;;;;;;;;;;;;;;;;;5047485;28;7103;-65
2023/03/07 06:33:15;;;;;;;;;;;;;;;;;;5055640;28;7154;-65
2023/03/07 06:35:42;;;;;;;;;;;;;;;;;;5049871;28;8564;-65
2023/03/07 06:38:08;;;;;;;;;;;;;;;;;;5037013;28;7182;-66
2023/03/07 06:40:53;;;;;;;;;;;;;;;;;;5043316;28;7378;-66
2023/03/07 06:43:18;;;;;;;;;;;;;;;;;;5055511;28;7054;-64
2023/03/07 06:45:57;;;;;;;;;;;;;;;;;;5055155;28;7252;-64
2023/03/07 06:48:23;;;;;;;;;;;;;;;;;;5051505;28;7242;-65
2023/03/07 06:51:14;;;;;;;;;;;;;;;;;;5053645;28;7118;-65
2023/03/07 07:10:00;;;;;;;;;;;;;;;;;;5033509;28;7258;-63
2023/03/07 07:21:35;;;;;;;;;;;;;;;;;;5072028;23;6726;-59
2023/03/07 07:24:00;;;;;;;;;;;;;;;;;;5035003;28;7376;-59
2023/03/07 07:26:32;;;;;;;;;;;;;;;;;;5035371;28;6987;-59
2023/03/07 07:29:05;;;;;;;;;;;;;;;;;;5034960;28;8070;-59
2023/03/07 07:31:31;;;;;;;;;;;;;;;;;;5035079;28;6962;-59
2023/03/07 07:34:18;;;;;;;;;;;;;;;;;;5034310;28;7058;-59
2023/03/07 07:36:43;;;;;;;;;;;;;;;;;;5035849;28;8957;-59
2023/03/07 07:39:46;;;;;;;;;;;;;;;;;;5049855;28;8320;-59
2023/03/07 07:42:20;;;;;;;;;;;;;;;;;;5054650;28;7192;-59
2023/03/07 07:44:47;;;;;;;;;;;;;;;;;;5054447;28;7066;-59
2023/03/07 07:47:12;;;;;;;;;;;;;;;;;;5054456;28;6964;-59
2023/03/07 07:49:38;;;;;;;;;;;;;;;;;;5030976;28;7125;-59
2023/03/07 07:52:03;;;;;;;;;;;;;;;;;;5014902;28;7106;-59
2023/03/07 07:54:52;;;;;;;;;;;;;;;;;;5014796;28;7006;-59
2023/03/07 07:57:18;;;;;;;;;;;;;;;;;;5019099;28;7082;-59
2023/03/07 08:02:48;;;;;;;;;;;;;;;;;;5054276;28;7028;-59
2023/03/07 08:05:14;;;;;;;;;;;;;;;;;;5054546;28;7174;-59
2023/03/07 08:07:39;;;;;;;;;;;;;;;;;;5054413;28;6933;-59
2023/03/07 08:10:24;;;;;;;;;;;;;;;;;;5055067;28;7182;-59
2023/03/07 08:12:50;;;;;;;;;;;;;;;;;;5054334;28;7389;-59
2023/03/07 08:15:22;;;;;;;;;;;;;;;;;;5037833;28;7088;-59
2023/03/07 08:17:49;;;;;;;;;;;;;;;;;;5043966;28;7416;-59
2023/03/07 08:20:40;;;;;;;;;;;;;;;;;;5057165;28;7919;-59
2023/03/07 08:23:06;;;;;;;;;;;;;;;;;;5038198;28;7069;-59
2023/03/07 08:25:50;;;;;;;;;;;;;;;;;;5036874;28;7315;-59
2023/03/07 08:28:15;;;;;;;;;;;;;;;;;;5038095;28;7426;-59
2023/03/07 08:36:51;;;;;;;;;;;;;;;;;;5037814;28;6681;-59
2023/03/07 08:39:17;;;;;;;;;;;;;;;;;;5037803;28;6978;-59
2023/03/07 08:41:50;;;;;;;;;;;;;;;;;;5038022;28;7013;-59
2023/03/07 08:44:15;;;;;;;;;;;;;;;;;;5037924;28;7400;-59
2023/03/07 08:46:41;;;;;;;;;;;;;;;;;;5037987;28;6948;-59
2023/03/07 08:49:06;;;;;;;;;;;;;;;;;;5037835;28;7061;-59
2023/03/07 08:51:34;;;;;;;;;;;;;;;;;;5037819;28;7244;-59
2023/03/07 08:53:59;;;;;;;;;;;;;;;;;;5037640;28;7309;-59
2023/03/07 08:56:26;;;;;;;;;;;;;;;;;;5037785;28;7095;-59
2023/03/07 08:58:52;;;;;;;;;;;;;;;;;;5037609;28;8461;-59
2023/03/07 09:01:25;;;;;;;;;;;;;;;;;;5037682;28;6973;-59
2023/03/07 09:03:51;;;;;;;;;;;;;;;;;;5037418;28;7254;-59
2023/03/07 09:06:18;;;;;;;;;;;;;;;;;;5037532;28;7230;-59
2023/03/07 09:09:04;;;;;;;;;;;;;;;;;;5037191;28;6861;-59
2023/03/07 09:11:30;;;;;;;;;;;;;;;;;;5037999;28;7436;-59
2023/03/07 09:17:05;;;;;;;;;;;;;;;;;;5035332;28;6923;-59
2023/03/07 09:19:30;;;;;;;;;;;;;;;;;;5018425;28;8805;-59
2023/03/07 09:21:56;;;;;;;;;;;;;;;;;;5047837;28;7318;-64
2023/03/07 09:24:27;;;;;;;;;;;;;;;;;;5055794;28;6895;-64
2023/03/07 09:26:52;;;;;;;;;;;;;;;;;;5047273;28;7273;-65
2023/03/07 09:29:35;;;;;;;;;;;;;;;;;;5036819;28;7230;-65
2023/03/07 09:32:02;;;;;;;;;;;;;;;;;;5037546;28;7152;-65
2023/03/07 09:34:52;;;;;;;;;;;;;;;;;;5056374;28;7081;-65
2023/03/07 09:37:17;;;;;;;;;;;;;;;;;;5039368;28;7075;-65
2023/03/07 09:43:07;;;;;;;;;;;;;;;;;;5055848;28;6905;-65
2023/03/07 09:45:51;;;;;;;;;;;;;;;;;;5045422;28;7406;-65
2023/03/07 09:51:39;;;;;;;;;;;;;;;;;;5056284;28;6913;-65
2023/03/07 09:54:44;;;;;;;;;;;;;;;;;;5056208;28;7406;-65
2023/03/07 10:00:30;;;;;;;;;;;;;;;;;;4938643;28;7002;-65
2023/03/07 10:03:11;;;;;;;;;;;;;;;;;;4974992;28;7387;-65
2023/03/07 10:05:40;;;;;;;;;;;;;;;;;;4974534;28;7200;-64
2023/03/07 10:08:12;;;;;;;;;;;;;;;;;;4974426;28;7157;-64
2023/03/07 10:11:02;;;;;;;;;;;;;;;;;;4975213;28;7126;-64
2023/03/07 10:17:08;;;;;;;;;;;;;;;;;;4974920;28;7120;-65
2023/03/07 10:19:39;;;;;;;;;;;;;;;;;;4964939;28;7125;-65
2023/03/07 10:22:11;;;;;;;;;;;;;;;;;;4973911;28;7195;-65
2023/03/07 10:28:13;;;;;;;;;;;;;;;;;;5006106;28;6874;-65
2023/03/07 10:30:39;;;;;;;;;;;;;;;;;;5055227;28;7186;-64
2023/03/07 10:33:17;;;;;;;;;;;;;;;;;;5054822;28;6962;-64
2023/03/07 10:35:48;;;;;;;;;;;;;;;;;;5055773;28;7158;-65
2023/03/07 10:38:18;;;;;;;;;;;;;;;;;;5055167;28;6935;-65
2023/03/07 10:40:56;;;;;;;;;;;;;;;;;;5055192;28;7418;-65
2023/03/07 10:43:27;;;;;;;;;;;;;;;;;;5055551;28;7021;-64
2023/03/07 10:45:58;;;;;;;;;;;;;;;;;;5055717;28;7378;-64
2023/03/07 10:54:31;;;;;;;;;;;;;;;;;;5055188;28;6993;-64
2023/03/07 10:57:05;;;;;;;;;;;;;;;;;;5055097;28;6970;-64
2023/03/07 10:59:49;;;;;;;;;;;;;;;;;;5055015;28;7882;-63
2023/03/07 11:02:28;;;;;;;;;;;;;;;;;;5045403;28;7451;-64
2023/03/07 11:04:54;;;;;;;;;;;;;;;;;;5055112;28;7042;-64
2023/03/07 11:07:26;;;;;;;;;;;;;;;;;;5054942;28;7372;-64
2023/03/07 11:10:13;;;;;;;;;;;;;;;;;;5055140;28;7077;-64
2023/03/07 11:12:44;;;;;;;;;;;;;;;;;;5054916;28;7296;-64
2023/03/07 11:15:11;;;;;;;;;;;;;;;;;;5054984;28;7251;-64
2023/03/07 11:17:58;;;;;;;;;;;;;;;;;;5037010;28;8523;-64
2023/03/07 11:20:27;;;;;;;;;;;;;;;;;;5054650;28;6968;-65
2023/03/07 11:23:11;;;;;;;;;;;;;;;;;;5041681;28;6955;-64
2023/03/07 11:25:58;;;;;;;;;;;;;;;;;;5035135;28;7044;-64
2023/03/07 11:32:01;;;;;;;;;;;;;;;;;;5034684;28;6929;-64
2023/03/07 11:34:33;;;;;;;;;;;;;;;;;;5035358;28;7096;-64
2023/03/07 11:40:33;;;;;;;;;;;;;;;;;;5034681;28;6678;-63
2023/03/07 11:52:59;;;;;;;;;;;;;;;;;;5036623;28;6929;-64
2023/03/07 11:55:31;;;;;;;;;;;;;;;;;;5038820;28;7252;-64
2023/03/07 11:57:57;;;;;;;;;;;;;;;;;;5039212;28;7270;-64
2023/03/07 12:00:25;;;;;;;;;;;;;;;;;;5038820;28;7232;-64
2023/03/07 12:02:51;;;;;;;;;;;;;;;;;;5039156;28;7128;-64
2023/03/07 12:05:20;;;;;;;;;;;;;;;;;;5038557;28;7202;-64
2023/03/07 12:16:45;;;;;;;;;;;;;;;;;;5039318;28;7182;-63
2023/03/07 12:19:29;;;;;;;;;;;;;;;;;;5038298;28;7362;-64
2023/03/07 12:31:05;;;;;;;;;;;;;;;;;;5058065;28;6922;-64
2023/03/07 12:33:49;;;;;;;;;;;;;;;;;;5058093;28;7143;-64
2023/03/07 12:36:25;;;;;;;;;;;;;;;;;;5057975;28;7102;-64
2023/03/07 12:39:11;;;;;;;;;;;;;;;;;;5057655;28;6958;-64
2023/03/07 12:44:34;;;;;;;;;;;;;;;;;;5058359;28;6949;-63
2023/03/07 12:50:12;;;;;;;;;;;;;;;;;;5057957;28;6782;-63
2023/03/07 12:52:56;;;;;;;;;;;;;;;;;;5056243;28;9796;-63
2023/03/07 12:55:24;;;;;;;;;;;;;;;;;;5057739;28;7125;-63
2023/03/07 12:57:55;;;;;;;;;;;;;;;;;;5057623;28;7382;-63
2023/03/07 13:00:21;;;;;;;;;;;;;;;;;;5056933;28;7411;-63
2023/03/07 13:02:57;;;;;;;;;;;;;;;;;;5057091;28;7204;-63
2023/03/07 13:05:54;;;;;;;;;;;;;;;;;;5057632;28;7419;-63
2023/03/07 13:08:22;;;;;;;;;;;;;;;;;;5057140;28;7037;-63
2023/03/07 13:10:52;;;;;;;;;;;;;;;;;;5056487;28;7196;-63
2023/03/07 13:14:07;;;;;;;;;;;;;;;;;;5056804;28;6950;-63
2023/03/07 13:19:36;;;;;;;;;;;;;;;;;;5056947;28;7050;-63
2023/03/07 13:22:14;;;;;;;;;;;;;;;;;;5056867;28;7208;-63
2023/03/07 13:24:40;;;;;;;;;;;;;;;;;;5057052;28;7111;-64
2023/03/07 13:27:17;;;;;;;;;;;;;;;;;;5057053;28;7177;-63
2023/03/07 13:32:45;;;;;;;;;;;;;;;;;;5056732;28;6673;-63
2023/03/07 13:35:11;;;;;;;;;;;;;;;;;;5057140;28;7173;-63
2023/03/07 13:43:44;;;;;;;;;;;;;;;;;;5056473;28;6701;-64
2023/03/07 13:46:30;;;;;;;;;;;;;;;;;;5056648;28;7163;-64
2023/03/07 13:48:56;;;;;;;;;;;;;;;;;;5056607;28;7063;-65
2023/03/07 13:57:20;;;;;;;;;;;;;;;;;;5056789;28;7006;-63
2023/03/07 13:59:48;;;;;;;;;;;;;;;;;;5056499;28;6943;-63
2023/03/07 14:02:17;;;;;;;;;;;;;;;;;;5056276;28;7142;-63
2023/03/07 14:05:17;;;;;;;;;;;;;;;;;;5056349;28;6986;-64
2023/03/07 14:07:50;;;;;;;;;;;;;;;;;;5056310;28;7250;-64
2023/03/07 14:13:37;;;;;;;;;;;;;;;;;;5055978;28;6687;-64
2023/03/07 14:16:06;;;;;;;;;;;;;;;;;;5055668;28;7233;-64
2023/03/07 14:18:31;;;;;;;;;;;;;;;;;;5056033;28;7153;-64
2023/03/07 14:21:38;;;;;;;;;;;;;;;;;;5055683;28;7125;-62
2023/03/07 14:24:32;;;;;;;;;;;;;;;;;;4974767;28;8260;-59
2023/03/07 14:27:02;;;;;;;;;;;;;;;;;;4966067;28;7172;-58
2023/03/07 14:29:29;;;;;;;;;;;;;;;;;;4974207;28;7151;-58
2023/03/07 14:31:57;;;;;;;;;;;;;;;;;;4974543;28;7167;-59
2023/03/07 14:34:34;;;;;;;;;;;;;;;;;;4974658;28;7226;-59
2023/03/07 14:37:03;;;;;;;;;;;;;;;;;;4974943;28;7165;-59
2023/03/07 14:46:07;;;;;;;;;;;;;;;;;;4974944;28;6685;-59
2023/03/07 14:48:51;;;;;;;;;;;;;;;;;;4974967;28;7153;-59
2023/03/07 14:54:16;;;;;;;;;;;;;;;;;;4990403;28;7052;-59
2023/03/07 15:03:23;;;;;;;;;;;;;;;;;;5037744;28;6912;-59
2023/03/07 15:05:50;;;;;;;;;;;;;;;;;;5035251;28;7205;-59
2023/03/07 15:14:34;;;;;;;;;;;;;;;;;;5034891;28;7026;-59
2023/03/07 15:17:03;;;;;;;;;;;;;;;;;;5034795;28;7167;-59
2023/03/07 15:19:38;;;;;;;;;;;;;;;;;;5074075;23;6976;-60
2023/03/07 15:24:59;;;;;;;;;;;;;;;;;;5054515;28;6788;-64
2023/03/07 15:27:29;;;;;;;;;;;;;;;;;;5054690;28;7102;-63
2023/03/07 15:29:56;;;;;;;;;;;;;;;;;;5054833;28;7283;-64
2023/03/07 15:32:30;;;;;;;;;;;;;;;;;;5055220;28;7193;-63
2023/03/07 15:35:04;;;;;;;;;;;;;;;;;;5054717;28;7190;-63
2023/03/07 15:37:51;;;;;;;;;;;;;;;;;;5055446;28;6900;-63
2023/03/07 15:40:21;;;;;;;;;;;;;;;;;;5054703;28;7011;-64
2023/03/07 15:45:40;;;;;;;;;;;;;;;;;;5055322;28;7099;-63
2023/03/07 15:51:18;;;;;;;;;;;;;;;;;;5054449;28;6677;-63
2023/03/07 15:59:54;;;;;;;;;;;;;;;;;;5054354;28;6670;-63
2023/03/07 16:02:38;;;;;;;;;;;;;;;;;;5054768;28;7512;-63
2023/03/07 16:05:22;;;;;;;;;;;;;;;;;;5054871;28;7288;-63
2023/03/07 16:08:10;;;;;;;;;;;;;;;;;;5054529;28;7063;-63
2023/03/07 16:10:36;;;;;;;;;;;;;;;;;;5054343;28;7131;-63
2023/03/07 16:13:03;;;;;;;;;;;;;;;;;;5054330;28;6959;-63
2023/03/07 16:15:28;;;;;;;;;;;;;;;;;;5054269;28;7009;-63
2023/03/07 16:18:30;;;;;;;;;;;;;;;;;;5055017;28;7134;-63
2023/03/07 16:23:50;;;;;;;;;;;;;;;;;;5034499;28;7002;-64
2023/03/07 16:29:32;;;;;;;;;;;;;;;;;;5054084;28;7082;-64
2023/03/07 16:32:00;;;;;;;;;;;;;;;;;;5054171;28;7073;-64
2023/03/07 16:37:22;;;;;;;;;;;;;;;;;;5054636;28;6907;-64
2023/03/07 16:39:48;;;;;;;;;;;;;;;;;;5057868;28;7116;-64
2023/03/07 16:42:29;;;;;;;;;;;;;;;;;;5059064;28;7294;-64
2023/03/07 16:44:55;;;;;;;;;;;;;;;;;;5057670;28;7216;-64
2023/03/07 16:47:20;;;;;;;;;;;;;;;;;;5057924;28;7315;-64
2023/03/07 16:49:45;;;;;;;;;;;;;;;;;;5057776;28;7086;-64
2023/03/07 16:52:25;;;;;;;;;;;;;;;;;;5057634;28;7052;-64
2023/03/07 16:54:51;;;;;;;;;;;;;;;;;;5057638;28;7066;-64
2023/03/07 16:57:33;;;;;;;;;;;;;;;;;;5057699;28;7047;-64
2023/03/07 16:59:59;;;;;;;;;;;;;;;;;;5057666;28;7126;-64
2023/03/07 17:02:25;;;;;;;;;;;;;;;;;;5057547;28;7118;-64
2023/03/07 17:04:51;;;;;;;;;;;;;;;;;;5057498;28;7230;-64
2023/03/07 17:07:48;;;;;;;;;;;;;;;;;;5057535;28;7371;-64
2023/03/07 17:10:14;;;;;;;;;;;;;;;;;;5057983;28;7330;-63
2023/03/07 17:12:42;;;;;;;;;;;;;;;;;;5057335;28;7010;-63
2023/03/07 17:15:12;;;;;;;;;;;;;;;;;;5057234;28;7232;-64
2023/03/07 17:17:37;;;;;;;;;;;;;;;;;;5056978;28;7226;-64
2023/03/07 17:23:07;;;;;;;;;;;;;;;;;;5057032;28;6701;-63
2023/03/07 17:25:33;;;;;;;;;;;;;;;;;;5039624;28;8605;-64
2023/03/07 17:28:11;;;;;;;;;;;;;;;;;;5057132;28;7044;-63
2023/03/07 17:30:51;;;;;;;;;;;;;;;;;;5056930;28;7049;-64
2023/03/07 17:33:18;;;;;;;;;;;;;;;;;;5056899;28;6960;-64
2023/03/07 17:35:44;;;;;;;;;;;;;;;;;;5056811;28;7198;-64
2023/03/07 17:38:11;;;;;;;;;;;;;;;;;;5056895;28;6991;-64
2023/03/07 17:40:37;;;;;;;;;;;;;;;;;;5056820;28;7196;-64
2023/03/07 17:45:54;;;;;;;;;;;;;;;;;;5056789;28;6992;-64
2023/03/07 17:48:29;;;;;;;;;;;;;;;;;;5056552;28;7321;-63
2023/03/07 17:50:54;;;;;;;;;;;;;;;;;;5055767;28;6938;-64
2023/03/07 17:53:20;;;;;;;;;;;;;;;;;;5056644;28;7154;-64
2023/03/07 17:59:00;;;;;;;;;;;;;;;;;;5056380;28;6904;-64
2023/03/07 18:01:29;;;;;;;;;;;;;;;;;;5056500;28;7245;-63
2023/03/07 18:04:20;;;;;;;;;;;;;;;;;;5056481;28;7239;-63
2023/03/07 18:06:46;;;;;;;;;;;;;;;;;;5056343;28;7210;-63
2023/03/07 18:09:13;;;;;;;;;;;;;;;;;;5056300;28;7055;-59
2023/03/07 18:11:39;;;;;;;;;;;;;;;;;;5056261;28;7192;-59
2023/03/07 18:17:36;;;;;;;;;;;;;;;;;;5055994;28;6689;-59
2023/03/07 18:20:09;;;;;;;;;;;;;;;;;;5055981;28;7458;-59
2023/03/07 18:22:35;;;;;;;;;;;;;;;;;;5055898;28;7191;-59
2023/03/07 18:25:04;;;;;;;;;;;;;;;;;;5055672;28;8231;-59
2023/03/07 18:27:30;;;;;;;;;;;;;;;;;;5055977;28;7044;-59
2023/03/07 18:32:58;;;;;;;;;;;;;;;;;;5055652;28;6996;-59
2023/03/07 18:35:57;;;;;;;;;;;;;;;;;;5055632;28;7120;-58
2023/03/07 18:38:23;;;;;;;;;;;;;;;;;;5055793;28;7054;-59
2023/03/07 18:41:23;;;;;;;;;;;;;;;;;;5056465;28;7023;-59
2023/03/07 18:46:45;;;;;;;;;;;;;;;;;;5056101;28;6974;-59
2023/03/07 18:52:48;;;;;;;;;;;;;;;;;;5055309;28;6936;-58
2023/03/07 18:55:14;;;;;;;;;;;;;;;;;;5055293;28;7150;-59
2023/03/07 18:57:39;;;;;;;;;;;;;;;;;;5055428;28;7204;-59
2023/03/07 19:06:24;;;;;;;;;;;;;;;;;;5055000;28;6903;-59
2023/03/07 19:08:50;;;;;;;;;;;;;;;;;;5055260;28;7175;-59
2023/03/07 19:11:18;;;;;;;;;;;;;;;;;;5056394;28;7249;-59
2023/03/07 19:13:44;;;;;;;;;;;;;;;;;;5055057;28;7306;-59
2023/03/07 19:16:34;;;;;;;;;;;;;;;;;;5055013;28;7595;-59
2023/03/07 19:19:00;;;;;;;;;;;;;;;;;;5055302;28;8745;-57
2023/03/07 19:21:27;;;;;;;;;;;;;;;;;;5051611;28;7097;-59
2023/03/07 19:24:06;;;;;;;;;;;;;;;;;;5054885;28;7437;-59
2023/03/07 19:32:37;;;;;;;;;;;;;;;;;;5054653;28;6931;-58
2023/03/07 19:38:17;;;;;;;;;;;;;;;;;;5054570;28;6944;-59
2023/03/07 19:40:46;;;;;;;;;;;;;;;;;;5054477;28;7175;-58
2023/03/07 19:43:12;;;;;;;;;;;;;;;;;;5054610;28;7357;-59
2023/03/07 19:45:50;;;;;;;;;;;;;;;;;;5054658;28;7140;-59
2023/03/07 19:48:16;;;;;;;;;;;;;;;;;;5054424;28;7032;-59
2023/03/07 19:50:42;;;;;;;;;;;;;;;;;;5053154;28;7153;-59
2023/03/07 19:53:07;;;;;;;;;;;;;;;;;;5054077;28;7105;-58
2023/03/07 19:55:46;;;;;;;;;;;;;;;;;;5054346;28;7143;-58
2023/03/07 19:58:12;;;;;;;;;;;;;;;;;;5052755;28;7079;-58
2023/03/07 20:00:39;;;;;;;;;;;;;;;;;;5053024;28;7178;-58
2023/03/07 20:03:18;;;;;;;;;;;;;;;;;;5054074;28;6954;-59
2023/03/07 20:05:45;;;;;;;;;;;;;;;;;;5048466;28;8466;-58
2023/03/07 20:08:22;;;;;;;;;;;;;;;;;;5051711;28;7887;-58
2023/03/07 20:10:47;;;;;;;;;;;;;;;;;;5054056;28;6947;-58
2023/03/07 20:13:33;;;;;;;;;;;;;;;;;;5056075;28;6985;-58
2023/03/07 20:15:58;;;;;;;;;;;;;;;;;;5057025;28;8757;-58
2023/03/07 20:18:35;;;;;;;;;;;;;;;;;;5058184;28;6801;-58
2023/03/07 20:21:20;;;;;;;;;;;;;;;;;;5057788;28;7154;-64
2023/03/07 20:23:47;;;;;;;;;;;;;;;;;;5055241;28;8237;-64
2023/03/07 20:26:24;;;;;;;;;;;;;;;;;;5058109;28;7358;-64
2023/03/07 20:28:50;;;;;;;;;;;;;;;;;;5057297;28;7133;-64
2023/03/07 20:31:15;;;;;;;;;;;;;;;;;;5058294;28;7139;-63
2023/03/07 20:33:44;;;;;;;;;;;;;;;;;;5058202;28;7216;-63
2023/03/07 20:36:21;;;;;;;;;;;;;;;;;;5058032;28;7062;-63
2023/03/07 20:38:48;;;;;;;;;;;;;;;;;;5058660;28;6969;-63
2023/03/07 20:41:15;;;;;;;;;;;;;;;;;;5058096;28;7133;-63
2023/03/07 20:44:00;;;;;;;;;;;;;;;;;;5089766;23;7163;-62
2023/03/07 20:46:26;;;;;;;;;;;;;;;;;;5057006;28;6961;-58
2023/03/07 20:48:59;;;;;;;;;;;;;;;;;;5057793;28;7210;-58
2023/03/07 20:51:27;;;;;;;;;;;;;;;;;;5057739;28;7049;-58
2023/03/07 20:53:52;;;;;;;;;;;;;;;;;;5075981;28;7165;-59
2023/03/07 20:59:36;;;;;;;;;;;;;;;;;;5077607;28;6682;-59
2023/03/07 21:02:01;;;;;;;;;;;;;;;;;;5077833;28;7183;-59
2023/03/07 21:07:17;;;;;;;;;;;;;;;;;;5076508;28;6772;-58
2023/03/07 21:09:49;;;;;;;;;;;;;;;;;;5073065;28;6964;-58
2023/03/07 21:12:15;;;;;;;;;;;;;;;;;;5077382;28;7156;-58
2023/03/07 21:15:15;;;;;;;;;;;;;;;;;;5077283;28;7195;-58
2023/03/07 21:17:40;;;;;;;;;;;;;;;;;;5062837;28;7054;-58
2023/03/07 21:20:35;;;;;;;;;;;;;;;;;;5071552;28;6950;-59
2023/03/07 21:23:01;;;;;;;;;;;;;;;;;;5073462;28;7001;-59
2023/03/07 21:25:49;;;;;;;;;;;;;;;;;;5074587;28;7154;-59
2023/03/07 21:28:14;;;;;;;;;;;;;;;;;;5058056;28;7177;-59
2023/03/07 21:30:50;;;;;;;;;;;;;;;;;;5057261;28;6962;-59
2023/03/07 21:33:16;;;;;;;;;;;;;;;;;;5057376;28;7362;-59
2023/03/07 21:36:05;;;;;;;;;;;;;;;;;;5056958;28;7095;-60
2023/03/07 21:38:32;;;;;;;;;;;;;;;;;;5056721;28;7148;-59
2023/03/07 21:41:00;;;;;;;;;;;;;;;;;;5056600;28;7219;-59
2023/03/07 21:46:26;;;;;;;;;;;;;;;;;;5056862;28;7050;-59
2023/03/07 21:48:51;;;;;;;;;;;;;;;;;;5056650;28;7149;-59
2023/03/07 21:51:27;;;;;;;;;;;;;;;;;;5056688;28;6933;-59
2023/03/07 21:53:53;;;;;;;;;;;;;;;;;;5056535;28;7008;-59
2023/03/07 21:59:21;;;;;;;;;;;;;;;;;;5056337;28;6678;-59
2023/03/07 22:01:47;;;;;;;;;;;;;;;;;;5056349;28;7153;-59
2023/03/07 22:07:21;;;;;;;;;;;;;;;;;;5056180;28;7043;-59
2023/03/07 22:09:47;;;;;;;;;;;;;;;;;;5056382;28;7134;-59
2023/03/07 22:12:46;;;;;;;;;;;;;;;;;;5056320;28;7163;-59
2023/03/07 22:15:13;;;;;;;;;;;;;;;;;;5057071;28;7315;-59
2023/03/07 22:17:38;;;;;;;;;;;;;;;;;;5056186;28;7258;-59
2023/03/07 22:22:54;;;;;;;;;;;;;;;;;;5056045;28;6761;-59
2023/03/07 22:25:32;;;;;;;;;;;;;;;;;;5055825;28;6916;-59
2023/03/07 22:27:57;;;;;;;;;;;;;;;;;;5056064;28;7226;-59
2023/03/07 22:33:46;;;;;;;;;;;;;;;;;;5055596;28;6829;-59
2023/03/07 22:36:12;;;;;;;;;;;;;;;;;;5054756;28;7201;-59
2023/03/07 22:38:38;;;;;;;;;;;;;;;;;;5056644;28;6903;-59
2023/03/07 22:41:05;;;;;;;;;;;;;;;;;;5055949;28;7205;-59
2023/03/07 22:46:55;;;;;;;;;;;;;;;;;;5055725;28;6983;-59
2023/03/07 22:49:21;;;;;;;;;;;;;;;;;;5055313;28;9252;-59
2023/03/07 22:54:56;;;;;;;;;;;;;;;;;;5055266;28;6952;-59
2023/03/07 22:57:21;;;;;;;;;;;;;;;;;;5055400;28;6940;-59
2023/03/07 22:59:47;;;;;;;;;;;;;;;;;;5055952;28;7116;-59